createdAt,value
2023-05-09T00:02:35.081Z,13.10
2023-05-09T00:07:38.042Z,13.07
2023-05-09T00:12:42.173Z,13.20
2023-05-09T00:17:46.380Z,13.14
2023-05-09T00:22:49.237Z,12.98
2023-05-09T00:27:52.005Z,12.91
2023-05-09T00:32:54.983Z,12.77
2023-05-09T00:37:57.763Z,12.62
2023-05-09T00:43:00.916Z,12.72
2023-05-09T00:48:03.975Z,12.93
2023-05-09T00:53:06.985Z,13.26
2023-05-09T00:58:09.977Z,13.55
2023-05-09T01:03:13.003Z,13.73
2023-05-09T01:08:30.453Z,14.13
2023-05-09T01:13:33.251Z,14.36
2023-05-09T01:18:41.362Z,14.05
2023-05-09T01:23:53.180Z,13.93
2023-05-09T01:29:19.271Z,13.67
2023-05-09T01:34:23.405Z,13.66
2023-05-09T01:39:27.698Z,13.87
2023-05-09T01:44:36.338Z,13.85
2023-05-09T01:49:40.777Z,14.27
2023-05-09T01:54:45.503Z,14.75
2023-05-09T01:59:49.472Z,15.16
2023-05-09T02:04:54.127Z,15.43
2023-05-09T02:09:59.965Z,15.43
2023-05-09T02:15:02.461Z,15.37
2023-05-09T02:20:10.344Z,14.91
2023-05-09T02:25:15.979Z,14.79
2023-05-09T02:30:24.752Z,14.43
2023-05-09T02:35:29.606Z,14.02
2023-05-09T02:40:36.724Z,14.09
2023-05-09T02:45:39.617Z,14.17
2023-05-09T02:50:43.840Z,14.13
2023-05-09T02:55:46.956Z,14.30
2023-05-09T03:00:49.793Z,14.75
2023-05-09T03:05:52.677Z,14.99
2023-05-09T03:10:55.726Z,15.44
2023-05-09T03:16:00.214Z,15.81
2023-05-09T03:21:03.323Z,16.07
2023-05-09T03:26:07.401Z,16.05
2023-05-09T03:31:12.036Z,15.44
2023-05-09T03:36:15.140Z,15.61
2023-05-09T03:41:19.791Z,16.10
2023-05-09T03:46:24.141Z,15.63
2023-05-09T03:51:27.435Z,15.09
2023-05-09T03:56:32.276Z,14.92
2023-05-09T04:01:35.408Z,15.22
2023-05-09T04:06:39.723Z,15.31
2023-05-09T04:11:45.240Z,15.47
2023-05-09T04:16:49.351Z,15.95
2023-05-09T04:21:52.554Z,16.71
2023-05-09T04:26:55.524Z,16.56
2023-05-09T04:32:02.521Z,15.99
2023-05-09T04:37:06.010Z,16.07
2023-05-09T04:42:11.213Z,16.13
2023-05-09T04:47:14.147Z,16.81
2023-05-09T04:52:18.188Z,16.83
2023-05-09T04:57:21.513Z,17.07
2023-05-09T05:02:30.058Z,17.62
2023-05-09T05:07:32.870Z,17.33
2023-05-09T05:12:36.187Z,17.25
2023-05-09T05:17:40.571Z,16.66
2023-05-09T05:22:45.283Z,16.61
2023-05-09T05:27:48.636Z,16.27
2023-05-09T05:32:52.041Z,16.63
2023-05-09T05:37:56.775Z,16.77
2023-05-09T05:43:01.114Z,16.45
2023-05-09T05:48:04.750Z,15.93
2023-05-09T05:53:08.326Z,15.67
2023-05-09T05:58:11.393Z,15.96
2023-05-09T06:03:15.066Z,16.60
2023-05-09T06:08:23.256Z,16.63
2023-05-09T06:13:26.409Z,15.97
2023-05-09T06:18:38.121Z,15.54
2023-05-09T06:23:56.985Z,15.27
2023-05-09T06:29:04.835Z,15.03
2023-05-09T06:34:08.105Z,14.77
2023-05-09T06:39:11.010Z,14.67
2023-05-09T06:44:13.878Z,14.99
2023-05-09T06:49:16.689Z,15.07
2023-05-09T06:54:19.655Z,15.38
2023-05-09T06:59:22.567Z,15.73
2023-05-09T07:04:25.386Z,15.96
2023-05-09T07:09:31.070Z,15.72
2023-05-09T07:14:33.850Z,15.37
2023-05-09T07:19:36.637Z,15.04
2023-05-09T07:24:39.553Z,14.75
2023-05-09T07:29:42.406Z,14.63
2023-05-09T07:34:45.722Z,14.69
2023-05-09T07:39:48.688Z,14.95
2023-05-09T07:44:51.616Z,15.39
2023-05-09T07:49:54.338Z,15.90
2023-05-09T07:54:57.287Z,16.04
2023-05-09T08:00:00.046Z,16.06
2023-05-09T08:05:03.740Z,16.32
2023-05-09T08:10:07.300Z,16.60
2023-05-09T08:15:10.553Z,16.66
2023-05-09T08:20:13.718Z,16.83
2023-05-09T08:25:18.624Z,17.17
2023-05-09T08:30:21.528Z,17.54
2023-05-09T08:35:25.067Z,17.96
2023-05-09T08:40:27.857Z,17.66
2023-05-09T08:45:31.260Z,17.33
2023-05-09T08:50:35.914Z,17.36
2023-05-09T08:55:39.113Z,17.09
2023-05-09T09:00:42.196Z,16.81
2023-05-09T09:05:45.737Z,16.89
2023-05-09T09:10:48.776Z,16.42
2023-05-09T09:15:53.790Z,15.94
2023-05-09T09:21:07.009Z,15.50
2023-05-09T09:26:10.044Z,15.12
2023-05-09T09:31:44.765Z,14.87
2023-05-09T09:36:48.812Z,14.89
2023-05-09T09:41:51.679Z,14.86
2023-05-09T09:46:56.248Z,14.81
2023-05-09T09:51:59.722Z,14.68
2023-05-09T09:57:03.119Z,14.58
2023-05-09T10:02:09.974Z,14.47
2023-05-09T10:07:15.122Z,14.18
2023-05-09T10:12:20.593Z,14.01
2023-05-09T10:17:24.027Z,13.87
2023-05-09T10:22:27.060Z,13.70
2023-05-09T10:27:32.699Z,13.38
2023-05-09T10:32:52.887Z,13.18
2023-05-09T10:37:59.339Z,13.31
2023-05-09T10:43:02.193Z,13.72
2023-05-09T10:48:09.238Z,13.91
2023-05-09T10:53:14.532Z,13.61
2023-05-09T10:58:29.347Z,13.50
2023-05-09T11:03:53.975Z,13.53
2023-05-09T11:08:56.823Z,12.93
2023-05-09T11:13:59.590Z,12.68
2023-05-09T11:19:02.536Z,12.41
2023-05-09T11:24:17.533Z,12.29
2023-05-09T11:29:20.339Z,11.89
2023-05-09T11:34:23.197Z,11.66
2023-05-09T11:39:26.165Z,11.70
2023-05-09T11:44:31.248Z,11.64
2023-05-09T11:49:34.064Z,11.54
2023-05-09T11:54:39.629Z,11.64
2023-05-09T11:59:42.485Z,11.88
2023-05-09T12:04:45.247Z,12.23
2023-05-09T12:09:50.149Z,12.55
2023-05-09T12:14:53.719Z,13.08
2023-05-09T12:20:00.276Z,13.37
2023-05-09T12:25:07.720Z,13.21
2023-05-09T12:30:11.192Z,13.22
2023-05-09T12:35:14.381Z,13.89
2023-05-09T12:40:17.475Z,14.88
2023-05-09T12:45:20.676Z,14.49
2023-05-09T12:50:23.473Z,13.68
2023-05-09T12:55:26.226Z,13.17
2023-05-09T13:00:29.358Z,12.77
2023-05-09T13:05:32.613Z,13.25
2023-05-09T13:10:35.704Z,12.69
2023-05-09T13:15:38.583Z,11.75
2023-05-09T13:20:41.455Z,11.18
2023-05-09T13:25:44.649Z,10.87
2023-05-09T13:30:47.620Z,10.77
2023-05-09T13:35:51.347Z,10.65
2023-05-09T13:40:54.256Z,11.04
2023-05-09T13:45:57.164Z,11.66
2023-05-09T13:51:01.623Z,12.05
2023-05-09T13:56:04.656Z,11.68
2023-05-09T14:01:07.949Z,11.23
2023-05-09T14:06:12.978Z,10.75
2023-05-09T14:11:16.985Z,10.18
2023-05-09T14:16:21.496Z,9.59
2023-05-09T14:21:24.294Z,9.14
2023-05-09T14:26:27.266Z,8.90
2023-05-09T14:31:30.185Z,8.77
2023-05-09T14:36:33.474Z,8.54
2023-05-09T14:41:36.672Z,8.38
2023-05-09T14:46:39.541Z,8.11
2023-05-09T14:51:42.386Z,7.86
2023-05-09T14:56:45.372Z,7.76
2023-05-09T15:01:48.757Z,7.51
2023-05-09T15:06:51.514Z,7.40
2023-05-09T15:11:55.302Z,7.24
2023-05-09T15:17:01.669Z,7.05
2023-05-09T15:22:05.241Z,6.97
2023-05-09T15:27:08.118Z,7.13
2023-05-09T15:32:11.266Z,7.41
2023-05-09T15:37:14.240Z,7.51
2023-05-09T15:42:17.062Z,7.59
2023-05-09T15:47:20.031Z,7.43
2023-05-09T15:52:22.719Z,7.36
2023-05-09T15:57:26.024Z,7.12
2023-05-09T16:02:29.452Z,7.02
2023-05-09T16:07:33.989Z,7.02
2023-05-09T16:12:38.310Z,6.87
2023-05-09T16:17:41.639Z,6.68
2023-05-09T16:22:44.569Z,6.47
2023-05-09T16:27:47.356Z,6.34
2023-05-09T16:32:50.239Z,6.11
2023-05-09T16:37:53.042Z,5.88
2023-05-09T16:42:56.160Z,5.65
2023-05-09T16:48:00.750Z,5.41
2023-05-09T16:53:05.198Z,5.31
2023-05-09T16:58:08.217Z,5.18
2023-05-09T17:03:11.174Z,5.03
2023-05-09T17:08:13.980Z,4.85
2023-05-09T17:13:16.782Z,4.80
2023-05-09T17:18:33.060Z,4.70
2023-05-09T17:23:39.302Z,4.54
2023-05-09T17:28:42.034Z,4.46
2023-05-09T17:33:44.818Z,4.40
2023-05-09T17:38:47.717Z,4.33
2023-05-09T17:43:52.356Z,4.26
2023-05-09T17:48:55.468Z,4.29
2023-05-09T17:53:58.368Z,4.32
2023-05-09T17:59:01.163Z,4.29
2023-05-09T18:04:04.078Z,4.27
2023-05-09T18:09:07.428Z,4.08
2023-05-09T18:14:10.253Z,3.91
2023-05-09T18:19:13.250Z,3.80
2023-05-09T18:24:16.990Z,3.74
2023-05-09T18:29:20.030Z,3.77
2023-05-09T18:34:22.886Z,3.77
2023-05-09T18:39:26.119Z,3.70
2023-05-09T18:44:30.297Z,3.73
2023-05-09T18:49:33.108Z,3.74
2023-05-09T18:54:38.596Z,3.78
2023-05-09T18:59:41.373Z,3.65
2023-05-09T19:04:46.497Z,3.50
2023-05-09T19:09:49.814Z,3.47
2023-05-09T19:14:52.688Z,3.47
2023-05-09T19:19:55.609Z,3.36
2023-05-09T19:24:59.272Z,3.24
2023-05-09T19:30:02.195Z,3.12
2023-05-09T19:35:06.146Z,2.75
2023-05-09T19:40:09.702Z,2.55
2023-05-09T19:45:12.784Z,2.47
2023-05-09T19:50:22.240Z,2.43
2023-05-09T19:55:25.117Z,2.41
2023-05-09T20:00:28.347Z,2.31
2023-05-09T20:05:32.849Z,2.30
2023-05-09T20:10:35.839Z,2.23
2023-05-09T20:15:39.128Z,2.04
2023-05-09T20:20:42.657Z,1.92
2023-05-09T20:25:45.440Z,1.81
2023-05-09T20:30:48.896Z,1.63
2023-05-09T20:35:51.749Z,1.51
2023-05-09T20:40:54.523Z,1.26
2023-05-09T20:45:57.534Z,1.18
2023-05-09T20:51:00.771Z,1.06
2023-05-09T20:56:03.945Z,0.90
2023-05-09T21:01:06.990Z,0.74
2023-05-09T21:06:09.873Z,0.79
2023-05-09T21:11:12.758Z,0.68
2023-05-09T21:16:15.552Z,0.70
2023-05-09T21:21:18.578Z,0.66
2023-05-09T21:26:23.435Z,0.61
2023-05-09T21:31:27.054Z,0.42
2023-05-09T21:36:29.972Z,0.29
2023-05-09T21:41:32.838Z,0.18
2023-05-09T21:46:36.226Z,0.09
2023-05-09T21:51:39.279Z,0.06
2023-05-09T21:56:43.009Z,-0.12
2023-05-09T22:01:46.759Z,-0.05
2023-05-09T22:06:49.650Z,0.02
2023-05-09T22:11:53.404Z,0.10
2023-05-09T22:16:56.280Z,0.10
2023-05-09T22:21:59.484Z,0.06
2023-05-09T22:27:02.509Z,0.02
2023-05-09T22:32:08.005Z,0.19
2023-05-09T22:37:11.095Z,0.22
2023-05-09T22:42:13.908Z,0.22
2023-05-09T22:47:16.970Z,0.23
2023-05-09T22:52:20.005Z,0.34
2023-05-09T22:57:24.167Z,0.33
2023-05-09T23:02:27.162Z,0.22
2023-05-09T23:07:30.133Z,0.12
2023-05-09T23:12:33.076Z,0.07
2023-05-09T23:17:35.950Z,0.05
2023-05-09T23:22:38.950Z,0.10
2023-05-09T23:27:42.445Z,0.20
2023-05-09T23:32:45.339Z,0.27
2023-05-09T23:37:48.167Z,0.57
2023-05-09T23:42:51.076Z,1.15
2023-05-09T23:47:54.178Z,2.50
2023-05-09T23:52:57.000Z,3.29
2023-05-09T23:58:01.016Z,3.86
